Time;durP1;ratioP1;P1;durP2;ratioP2;P2;SDS_P1;SDS_P2;PMS_P1;PMS_P2;Temp;Humidity;BMP_temperature;BMP_pressure;BME280_temperature;BME280_humidity;BME280_pressure;Samples;Min_cycle;Max_cycle;Signal;HPM_P1;HPM_P2
2022/01/10 00:00:39;;;;;;;35.58;20.17;;;;;;;;;;4998880;28;20049;-92
2022/01/10 00:03:06;;;;;;;37.90;20.90;;;;;;;;;;4997784;28;20022;-91
2022/01/10 00:05:32;;;;;;;40.47;21.23;;;;;;;;;;4998891;28;20027;-92
2022/01/10 00:07:58;;;;;;;38.20;21.98;;;;;;;;;;4997881;28;20019;-93
2022/01/10 00:10:24;;;;;;;35.25;20.73;;;;;;;;;;4997845;28;20026;-92
2022/01/10 00:12:50;;;;;;;32.38;19.27;;;;;;;;;;4997071;28;20129;-91
2022/01/10 00:15:16;;;;;;;38.85;20.17;;;;;;;;;;4997470;28;20033;-92
2022/01/10 00:17:43;;;;;;;35.72;21.33;;;;;;;;;;4997734;28;20037;-91
2022/01/10 00:20:10;;;;;;;37.95;21.33;;;;;;;;;;4996523;28;20457;-92
2022/01/10 00:22:37;;;;;;;38.85;21.15;;;;;;;;;;4997395;28;20034;-92
2022/01/10 00:25:04;;;;;;;40.78;22.50;;;;;;;;;;4997324;28;20046;-92
2022/01/10 00:27:31;;;;;;;39.85;22.08;;;;;;;;;;4996847;28;20388;-92
2022/01/10 00:29:57;;;;;;;43.17;22.50;;;;;;;;;;4998571;28;20417;-93
2022/01/10 00:32:23;;;;;;;43.28;22.88;;;;;;;;;;4998498;28;20030;-92
2022/01/10 00:34:49;;;;;;;40.25;22.75;;;;;;;;;;4997601;28;20053;-92
2022/01/10 00:37:15;;;;;;;40.47;22.48;;;;;;;;;;4997299;28;20022;-92
2022/01/10 00:39:42;;;;;;;41.08;23.27;;;;;;;;;;4998232;28;20029;-92
2022/01/10 00:42:08;;;;;;;39.95;22.17;;;;;;;;;;4998204;28;20026;-92
2022/01/10 00:44:39;;;;;;;39.40;22.40;;;;;;;;;;4998017;28;20030;-92
2022/01/10 00:47:05;;;;;;;42.42;23.52;;;;;;;;;;4996190;28;20026;-88
2022/01/10 00:49:31;;;;;;;38.53;22.40;;;;;;;;;;4993716;28;20030;-88
2022/01/10 00:51:57;;;;;;;41.30;22.20;;;;;;;;;;4996319;28;20077;-87
2022/01/10 00:54:23;;;;;;;40.00;21.25;;;;;;;;;;4992015;28;20114;-87
2022/01/10 00:56:49;;;;;;;39.10;21.13;;;;;;;;;;4977612;28;20045;-87
2022/01/10 00:59:16;;;;;;;36.03;19.77;;;;;;;;;;4980838;28;20034;-88
2022/01/10 01:01:42;;;;;;;33.40;19.02;;;;;;;;;;4996448;28;20038;-88
2022/01/10 01:04:08;;;;;;;30.27;17.60;;;;;;;;;;4985893;28;20057;-88
2022/01/10 01:06:34;;;;;;;31.50;18.00;;;;;;;;;;4983527;28;20025;-89
2022/01/10 01:09:06;;;;;;;35.20;19.00;;;;;;;;;;4987332;28;20027;-90
2022/01/10 01:14:08;;;;;;;28.65;16.92;;;;;;;;;;4998313;28;20081;-89
2022/01/10 01:24:47;;;;;;;29.08;16.35;;;;;;;;;;4982891;28;20440;-89
2022/01/10 01:27:13;;;;;;;33.05;17.65;;;;;;;;;;4993820;28;20051;-89
2022/01/10 01:29:39;;;;;;;34.97;18.42;;;;;;;;;;4978468;28;20062;-90
2022/01/10 01:32:05;;;;;;;34.22;18.52;;;;;;;;;;4978393;28;20473;-88
2022/01/10 01:34:31;;;;;;;37.03;19.45;;;;;;;;;;4985442;28;20030;-89
2022/01/10 01:40:01;;;;;;;35.90;20.35;;;;;;;;;;5014105;28;20045;-89
2022/01/10 01:45:13;;;;;;;34.53;19.73;;;;;;;;;;4994533;28;20030;-89
2022/01/10 01:47:39;;;;;;;38.05;20.08;;;;;;;;;;4986251;28;20102;-89
2022/01/10 01:50:06;;;;;;;44.55;22.00;;;;;;;;;;4984011;28;20027;-89
2022/01/10 01:52:33;;;;;;;39.13;22.60;;;;;;;;;;5008081;28;20035;-89
2022/01/10 01:54:59;;;;;;;36.95;20.67;;;;;;;;;;5001383;28;20030;-89
2022/01/10 01:57:25;;;;;;;39.75;20.60;;;;;;;;;;5016689;28;20061;-89
2022/01/10 01:59:52;;;;;;;34.20;19.00;;;;;;;;;;5000945;28;20029;-89
2022/01/10 02:02:18;;;;;;;37.30;20.58;;;;;;;;;;4989196;28;20022;-89
2022/01/10 02:04:45;;;;;;;38.47;20.40;;;;;;;;;;4981711;28;20317;-89
2022/01/10 02:16:32;;;;;;;36.67;19.35;;;;;;;;;;4995155;28;20085;-88
2022/01/10 02:18:59;;;;;;;33.10;19.02;;;;;;;;;;4985287;28;20061;-88
2022/01/10 02:27:32;;;;;;;32.15;18.67;;;;;;;;;;4983481;28;20126;-86
2022/01/10 02:29:58;;;;;;;30.70;18.13;;;;;;;;;;5000450;28;20397;-90
2022/01/10 02:32:24;;;;;;;34.00;19.67;;;;;;;;;;5000616;28;20026;-89
2022/01/10 02:34:50;;;;;;;31.88;19.02;;;;;;;;;;5000280;28;20062;-89
2022/01/10 02:37:30;;;;;;;29.83;17.67;;;;;;;;;;5000243;28;20026;-89
2022/01/10 02:39:58;;;;;;;31.98;18.20;;;;;;;;;;5000567;28;20027;-89
2022/01/10 02:42:24;;;;;;;29.70;17.67;;;;;;;;;;4999171;28;20033;-89
2022/01/10 02:44:52;;;;;;;29.20;17.33;;;;;;;;;;5000484;28;20022;-88
2022/01/10 02:47:18;;;;;;;29.33;17.48;;;;;;;;;;4989102;28;20023;-89
2022/01/10 02:49:44;;;;;;;29.88;17.63;;;;;;;;;;4979772;28;20361;-89
2022/01/10 02:52:10;;;;;;;29.65;17.25;;;;;;;;;;4979223;28;20035;-88
2022/01/10 02:54:36;;;;;;;26.92;16.80;;;;;;;;;;4985462;28;20030;-90
2022/01/10 02:57:03;;;;;;;32.35;18.38;;;;;;;;;;5013376;28;20038;-88
2022/01/10 02:59:36;;;;;;;31.35;18.48;;;;;;;;;;5014811;28;20030;-89
2022/01/10 03:02:03;;;;;;;27.98;17.20;;;;;;;;;;4992168;28;20023;-89
2022/01/10 03:19:10;;;;;;;28.48;16.77;;;;;;;;;;5091655;23;20066;-89
2022/01/10 03:24:41;;;;;;;25.48;15.73;;;;;;;;;;4999954;28;20053;-89
2022/01/10 03:27:07;;;;;;;27.55;16.13;;;;;;;;;;4982449;28;20030;-90
2022/01/10 03:29:33;;;;;;;26.70;16.42;;;;;;;;;;4982093;28;20027;-89
2022/01/10 03:32:01;;;;;;;29.48;17.98;;;;;;;;;;4982094;28;20042;-89
2022/01/10 03:34:28;;;;;;;30.27;17.52;;;;;;;;;;4999814;28;20033;-90
2022/01/10 03:36:54;;;;;;;29.10;17.60;;;;;;;;;;5018026;28;20034;-90
2022/01/10 14:07:22;;;;;;;63.55;33.13;;;;;;;;;;4920267;29;20063;-86
2022/01/10 14:09:48;;;;;;;63.25;31.60;;;;;;;;;;4907088;29;20039;-87
2022/01/10 14:12:14;;;;;;;60.28;33.70;;;;;;;;;;4923966;29;20056;-87
2022/01/10 14:25:42;;;;;;;64.32;35.35;;;;;;;;;;5010716;23;20149;-87
2022/01/10 14:28:10;;;;;;;61.08;32.80;;;;;;;;;;4949087;28;20058;-88
2022/01/10 14:30:36;;;;;;;63.65;34.53;;;;;;;;;;4961952;28;20034;-87
2022/01/10 14:33:04;;;;;;;64.13;34.75;;;;;;;;;;4962099;28;20114;-88
2022/01/10 14:35:34;;;;;;;67.10;33.35;;;;;;;;;;4928550;29;20035;-88
2022/01/10 14:38:00;;;;;;;65.90;33.80;;;;;;;;;;4962468;29;20023;-88
2022/01/10 14:43:16;;;;;;;65.90;33.28;;;;;;;;;;5036756;23;20065;-87
2022/01/10 14:48:31;;;;;;;56.92;32.03;;;;;;;;;;5005399;23;20074;-88
2022/01/10 14:50:57;;;;;;;56.92;31.40;;;;;;;;;;4963328;28;20121;-87
2022/01/10 14:53:24;;;;;;;55.95;32.08;;;;;;;;;;4980425;28;20023;-87
2022/01/10 14:55:54;;;;;;;59.78;32.20;;;;;;;;;;4967543;28;20027;-88
2022/01/10 14:58:20;;;;;;;61.72;31.83;;;;;;;;;;4944233;29;20027;-87
2022/01/10 15:00:48;;;;;;;59.97;32.22;;;;;;;;;;4944413;29;20066;-87
2022/01/10 15:03:15;;;;;;;56.78;32.13;;;;;;;;;;4943815;29;20031;-86
2022/01/10 15:05:41;;;;;;;63.15;34.88;;;;;;;;;;4928384;29;20031;-87
2022/01/10 15:08:07;;;;;;;63.60;35.00;;;;;;;;;;4961083;29;20395;-86
2022/01/10 15:10:34;;;;;;;60.63;33.85;;;;;;;;;;4961254;28;20027;-87
2022/01/10 15:32:48;;;;;;;65.57;33.15;;;;;;;;;;4980464;28;20054;-87
2022/01/10 15:35:15;;;;;;;70.47;35.85;;;;;;;;;;4973282;28;20022;-86
2022/01/10 15:37:41;;;;;;;63.15;34.00;;;;;;;;;;4953642;29;20055;-86
2022/01/10 15:43:14;;;;;;;62.60;34.38;;;;;;;;;;4983472;23;20323;-87
2022/01/10 15:45:40;;;;;;;65.57;35.13;;;;;;;;;;4960389;29;20039;-87
2022/01/10 15:50:51;;;;;;;62.28;34.72;;;;;;;;;;4946377;29;20050;-88
2022/01/10 15:53:17;;;;;;;64.25;35.88;;;;;;;;;;4949371;29;20042;-87
2022/01/10 15:55:43;;;;;;;65.47;34.90;;;;;;;;;;4959257;29;20020;-90
2022/01/10 15:58:10;;;;;;;64.10;33.83;;;;;;;;;;4959909;28;20031;-90
2022/01/10 16:00:40;;;;;;;64.50;35.08;;;;;;;;;;4960336;29;20023;-90
2022/01/10 16:11:41;;;;;;;69.30;36.20;;;;;;;;;;4964863;28;20049;-91
2022/01/10 16:16:58;;;;;;;69.40;35.60;;;;;;;;;;4979525;23;20404;-92
2022/01/10 16:19:24;;;;;;;68.35;34.70;;;;;;;;;;4933781;29;20027;-91
2022/01/10 16:21:51;;;;;;;68.18;35.25;;;;;;;;;;4946250;29;20466;-90
2022/01/10 16:24:17;;;;;;;61.88;34.20;;;;;;;;;;4951841;29;20119;-91
2022/01/10 16:26:43;;;;;;;71.78;35.92;;;;;;;;;;4944864;29;20024;-91
2022/01/10 16:29:09;;;;;;;63.10;36.28;;;;;;;;;;4936533;29;20051;-90
2022/01/10 16:31:36;;;;;;;69.78;36.30;;;;;;;;;;4932061;29;20030;-90
2022/01/10 16:34:03;;;;;;;67.88;37.10;;;;;;;;;;4944360;29;20307;-90
2022/01/10 16:36:30;;;;;;;70.97;38.72;;;;;;;;;;4953188;29;20055;-90
2022/01/10 16:38:57;;;;;;;68.35;37.72;;;;;;;;;;4940819;29;20054;-91
2022/01/10 16:41:23;;;;;;;75.68;39.15;;;;;;;;;;4932902;29;20341;-91
2022/01/10 16:43:49;;;;;;;78.20;42.40;;;;;;;;;;4952154;29;20034;-90
2022/01/10 16:46:16;;;;;;;83.68;39.53;;;;;;;;;;4959442;29;20031;-91
2022/01/10 16:48:42;;;;;;;74.32;38.88;;;;;;;;;;4948949;29;20027;-90
2022/01/10 16:51:08;;;;;;;72.95;38.17;;;;;;;;;;4926566;29;20043;-90
2022/01/10 16:59:42;;;;;;;63.72;34.88;;;;;;;;;;4957741;29;20079;-90
2022/01/10 17:02:09;;;;;;;67.13;33.80;;;;;;;;;;4950615;29;20035;-90
2022/01/10 17:04:35;;;;;;;70.38;34.55;;;;;;;;;;4958533;29;20046;-90
2022/01/10 17:07:02;;;;;;;64.53;35.50;;;;;;;;;;4933410;29;20331;-90
2022/01/10 17:10:05;;;;;;;67.15;35.72;;;;;;;;;;4947410;29;20027;-91
2022/01/10 17:12:31;;;;;;;63.38;34.60;;;;;;;;;;4945259;29;20024;-90
2022/01/10 17:14:57;;;;;;;64.28;34.42;;;;;;;;;;4950294;29;20047;-90
2022/01/10 17:17:23;;;;;;;67.18;35.88;;;;;;;;;;4927351;29;20334;-91
2022/01/10 17:19:49;;;;;;;65.65;33.45;;;;;;;;;;4927325;29;20130;-91
2022/01/10 17:22:16;;;;;;;61.17;32.22;;;;;;;;;;4928987;29;20027;-91
2022/01/10 17:24:43;;;;;;;62.70;32.35;;;;;;;;;;4962229;29;20082;-92
2022/01/10 17:27:12;;;;;;;61.67;33.17;;;;;;;;;;4926710;29;20032;-90
2022/01/10 17:29:39;;;;;;;62.70;34.30;;;;;;;;;;4934830;29;20042;-91
2022/01/10 17:32:05;;;;;;;62.75;33.40;;;;;;;;;;4938724;29;20042;-91
2022/01/10 17:34:31;;;;;;;59.17;31.50;;;;;;;;;;4963674;29;20034;-91
2022/01/10 17:36:57;;;;;;;59.22;31.08;;;;;;;;;;4930730;29;20031;-91
2022/01/10 17:39:24;;;;;;;62.60;31.67;;;;;;;;;;4942941;29;20338;-91
2022/01/10 17:41:52;;;;;;;54.88;30.40;;;;;;;;;;4927102;29;20083;-91
2022/01/10 17:44:18;;;;;;;57.95;31.20;;;;;;;;;;4919316;29;20040;-91
2022/01/10 17:46:45;;;;;;;60.25;32.33;;;;;;;;;;4951240;29;20040;-91
2022/01/10 17:49:15;;;;;;;61.55;32.65;;;;;;;;;;4926539;29;20070;-91
2022/01/10 17:51:59;;;;;;;61.75;33.65;;;;;;;;;;4926314;29;20334;-91
2022/01/10 17:57:29;;;;;;;61.15;33.20;;;;;;;;;;4944499;29;20038;-88
2022/01/10 17:59:57;;;;;;;61.08;32.20;;;;;;;;;;4937610;29;20042;-90
2022/01/10 18:02:24;;;;;;;56.92;31.95;;;;;;;;;;4956264;29;20075;-90
2022/01/10 18:04:51;;;;;;;54.05;30.77;;;;;;;;;;4942666;29;20036;-91
2022/01/10 18:07:17;;;;;;;60.30;32.28;;;;;;;;;;4931967;29;20102;-92
2022/01/10 18:12:47;;;;;;;55.75;29.55;;;;;;;;;;4953421;29;20164;-91
2022/01/10 18:15:13;;;;;;;53.17;29.65;;;;;;;;;;4954333;29;20043;-92
2022/01/10 18:17:40;;;;;;;58.53;30.90;;;;;;;;;;4927254;29;20038;-92
2022/01/10 18:20:07;;;;;;;58.92;32.50;;;;;;;;;;4949040;29;20050;-91
2022/01/10 18:22:35;;;;;;;55.45;30.25;;;;;;;;;;4953807;29;20060;-91
2022/01/10 18:25:12;;;;;;;51.92;29.50;;;;;;;;;;4944726;29;20039;-91
2022/01/10 18:27:38;;;;;;;53.33;28.70;;;;;;;;;;4928472;29;20042;-92
2022/01/10 18:30:06;;;;;;;54.90;29.55;;;;;;;;;;4933454;29;20034;-91
2022/01/10 18:32:33;;;;;;;55.85;29.83;;;;;;;;;;4935481;29;20119;-92
2022/01/10 18:34:59;;;;;;;62.05;31.23;;;;;;;;;;4961603;29;20414;-93
2022/01/10 18:37:25;;;;;;;54.72;29.33;;;;;;;;;;4949632;29;20039;-91
2022/01/10 18:39:52;;;;;;;53.63;28.50;;;;;;;;;;4938734;29;20039;-91
2022/01/10 18:42:19;;;;;;;58.75;29.90;;;;;;;;;;4954295;29;20066;-92
2022/01/10 18:44:45;;;;;;;54.97;29.63;;;;;;;;;;4953200;29;20043;-92
2022/01/10 18:47:11;;;;;;;57.90;30.67;;;;;;;;;;4958355;29;20086;-92
2022/01/10 18:49:37;;;;;;;56.08;29.85;;;;;;;;;;4940639;29;20020;-91
2022/01/10 18:52:06;;;;;;;57.58;30.38;;;;;;;;;;4952264;29;20067;-91
2022/01/10 18:54:32;;;;;;;57.75;30.80;;;;;;;;;;4952744;29;20035;-91
2022/01/10 18:56:59;;;;;;;55.42;30.40;;;;;;;;;;4936320;29;20046;-92
2022/01/10 18:59:25;;;;;;;56.80;31.77;;;;;;;;;;4942342;29;20219;-92
2022/01/10 19:01:51;;;;;;;54.83;29.50;;;;;;;;;;4941449;29;20043;-91
2022/01/10 19:04:20;;;;;;;55.78;30.00;;;;;;;;;;4946241;29;20314;-92
2022/01/10 19:06:47;;;;;;;56.13;28.75;;;;;;;;;;4925328;29;20019;-92
2022/01/10 19:09:14;;;;;;;58.10;28.88;;;;;;;;;;4944189;29;20087;-92
2022/01/10 19:11:40;;;;;;;57.72;29.42;;;;;;;;;;4956792;29;20029;-92
2022/01/10 19:14:06;;;;;;;55.75;28.95;;;;;;;;;;4939575;29;20039;-92
2022/01/10 19:16:33;;;;;;;55.72;29.73;;;;;;;;;;4952974;29;20059;-91
2022/01/10 19:18:59;;;;;;;58.63;29.17;;;;;;;;;;4941484;29;20148;-91
2022/01/10 19:21:25;;;;;;;53.00;28.20;;;;;;;;;;4938882;29;20038;-91
2022/01/10 19:23:54;;;;;;;50.00;27.98;;;;;;;;;;4945183;29;20040;-91
2022/01/10 19:26:20;;;;;;;53.10;28.92;;;;;;;;;;4935251;29;20032;-92
2022/01/10 19:28:47;;;;;;;52.55;28.50;;;;;;;;;;4951558;29;20059;-92
2022/01/10 19:31:14;;;;;;;53.53;29.40;;;;;;;;;;4941921;29;20147;-93
2022/01/10 19:33:40;;;;;;;56.58;29.13;;;;;;;;;;4947828;29;20051;-92
2022/01/10 19:36:06;;;;;;;58.92;29.70;;;;;;;;;;4930061;29;20023;-93
2022/01/10 19:38:32;;;;;;;53.53;28.27;;;;;;;;;;4929874;29;20051;-93
2022/01/10 19:40:58;;;;;;;51.58;28.40;;;;;;;;;;4948764;29;20074;-93
2022/01/10 19:43:26;;;;;;;54.03;27.15;;;;;;;;;;4953945;29;20502;-92
2022/01/10 19:45:52;;;;;;;56.75;29.70;;;;;;;;;;4960191;29;20054;-94
2022/01/10 19:48:18;;;;;;;53.08;28.05;;;;;;;;;;4950768;29;20038;-93
2022/01/10 19:50:44;;;;;;;51.15;27.73;;;;;;;;;;4949500;29;20028;-93
2022/01/10 19:53:10;;;;;;;46.85;26.98;;;;;;;;;;4948814;29;20015;-92
2022/01/10 19:55:36;;;;;;;46.35;25.63;;;;;;;;;;4924250;29;20157;-92
2022/01/10 19:58:03;;;;;;;52.42;28.10;;;;;;;;;;4951441;29;20074;-93
2022/01/10 20:00:29;;;;;;;51.10;27.73;;;;;;;;;;4938370;29;20023;-94
2022/01/10 20:02:55;;;;;;;44.15;25.08;;;;;;;;;;4960297;29;20546;-93
2022/01/10 20:05:21;;;;;;;42.05;24.67;;;;;;;;;;4954211;29;20414;-90
2022/01/10 20:07:50;;;;;;;45.03;23.85;;;;;;;;;;4930480;29;20032;-91
2022/01/10 20:10:17;;;;;;;40.47;23.30;;;;;;;;;;4957922;29;20110;-91
2022/01/10 20:12:43;;;;;;;42.40;23.25;;;;;;;;;;4959968;29;20035;-91
2022/01/10 20:15:09;;;;;;;42.22;24.00;;;;;;;;;;4940878;29;20050;-92
2022/01/10 20:17:36;;;;;;;42.72;22.83;;;;;;;;;;4942413;29;20118;-91
2022/01/10 20:20:03;;;;;;;41.92;22.73;;;;;;;;;;4938999;29;20038;-90
2022/01/10 20:22:29;;;;;;;41.35;22.75;;;;;;;;;;4947517;29;20024;-91
2022/01/10 20:24:55;;;;;;;40.88;22.55;;;;;;;;;;4948526;29;20115;-91
2022/01/10 20:27:21;;;;;;;43.30;23.65;;;;;;;;;;4946715;29;20310;-90
2022/01/10 20:29:47;;;;;;;42.60;23.13;;;;;;;;;;4945533;29;20107;-92
2022/01/10 20:32:14;;;;;;;40.13;21.63;;;;;;;;;;4940552;29;20046;-93
2022/01/10 20:34:40;;;;;;;41.22;22.48;;;;;;;;;;4958880;29;20023;-93
2022/01/10 20:37:06;;;;;;;40.08;22.45;;;;;;;;;;4933948;29;20043;-92
2022/01/10 20:40:09;;;;;;;39.65;22.38;;;;;;;;;;4945370;29;20438;-91
2022/01/10 20:42:36;;;;;;;41.38;22.42;;;;;;;;;;4961346;29;20414;-90
2022/01/10 20:45:02;;;;;;;46.28;23.95;;;;;;;;;;4936055;29;20051;-91
2022/01/10 20:47:28;;;;;;;43.35;23.60;;;;;;;;;;4936003;29;20119;-91
2022/01/10 20:49:54;;;;;;;46.47;24.38;;;;;;;;;;4941329;29;20016;-92
2022/01/10 20:52:20;;;;;;;46.55;24.48;;;;;;;;;;4942456;29;20072;-91
2022/01/10 21:00:54;;;;;;;49.30;25.95;;;;;;;;;;4959797;29;20051;-92
2022/01/10 21:03:20;;;;;;;50.78;26.35;;;;;;;;;;4959395;29;20034;-90
2022/01/10 21:05:47;;;;;;;49.22;24.92;;;;;;;;;;4933422;29;20019;-92
2022/01/10 21:08:14;;;;;;;54.35;26.65;;;;;;;;;;4942997;29;20023;-93
2022/01/10 21:11:18;;;;;;;50.10;26.05;;;;;;;;;;4945231;29;20326;-93
2022/01/10 21:13:47;;;;;;;41.60;22.83;;;;;;;;;;4944840;29;20372;-90
2022/01/10 21:16:13;;;;;;;50.00;24.80;;;;;;;;;;4951383;29;20058;-93
2022/01/10 21:18:39;;;;;;;47.60;22.80;;;;;;;;;;4942736;29;20036;-92
2022/01/10 21:21:05;;;;;;;42.30;21.40;;;;;;;;;;4942325;29;20035;-92
2022/01/10 21:23:32;;;;;;;42.03;20.48;;;;;;;;;;4959160;29;20040;-91
2022/01/10 21:26:03;;;;;;;41.55;20.35;;;;;;;;;;4959265;29;20028;-90
2022/01/10 21:28:29;;;;;;;38.83;20.17;;;;;;;;;;4956395;29;20019;-90
2022/01/10 21:30:56;;;;;;;35.10;19.65;;;;;;;;;;4925710;29;20078;-92
2022/01/10 21:33:22;;;;;;;37.67;18.95;;;;;;;;;;4958983;29;20395;-90
2022/01/10 21:35:48;;;;;;;39.55;19.52;;;;;;;;;;4959356;29;20027;-91
2022/01/10 21:38:15;;;;;;;36.45;20.13;;;;;;;;;;4942190;29;20031;-91
2022/01/10 21:43:44;;;;;;;35.55;19.15;;;;;;;;;;4959316;29;20042;-92
2022/01/10 21:46:10;;;;;;;32.75;17.85;;;;;;;;;;4957490;29;20382;-92
2022/01/10 21:48:36;;;;;;;37.38;18.52;;;;;;;;;;4959221;29;20107;-91
2022/01/10 21:51:02;;;;;;;34.72;18.15;;;;;;;;;;4959313;29;20028;-92
2022/01/10 21:53:28;;;;;;;37.47;18.33;;;;;;;;;;4957209;29;20101;-91
2022/01/10 21:58:58;;;;;;;38.15;18.33;;;;;;;;;;4962899;29;20440;-93
2022/01/10 22:01:24;;;;;;;35.42;18.48;;;;;;;;;;4962613;29;20326;-89
2022/01/10 22:03:51;;;;;;;37.58;19.13;;;;;;;;;;4945189;29;20037;-89
2022/01/10 22:06:17;;;;;;;36.58;18.45;;;;;;;;;;4962035;29;20156;-90
2022/01/10 22:08:43;;;;;;;36.67;17.85;;;;;;;;;;4962565;29;20118;-90
2022/01/10 22:11:09;;;;;;;38.33;19.05;;;;;;;;;;4962334;29;20027;-90
2022/01/10 22:13:36;;;;;;;36.45;18.83;;;;;;;;;;4944945;29;20389;-90
2022/01/10 22:16:02;;;;;;;30.13;15.80;;;;;;;;;;4959814;29;20047;-94
2022/01/10 22:18:31;;;;;;;36.08;17.83;;;;;;;;;;4955097;29;20043;-93
2022/01/10 22:21:06;;;;;;;32.70;16.92;;;;;;;;;;4926141;29;20490;-89
2022/01/10 22:23:34;;;;;;;31.75;16.88;;;;;;;;;;4942847;29;20024;-91
2022/01/10 22:26:02;;;;;;;29.73;16.45;;;;;;;;;;4925761;29;20032;-92
2022/01/10 22:28:29;;;;;;;30.25;16.58;;;;;;;;;;4925901;29;20028;-96
2022/01/10 22:30:55;;;;;;;28.63;16.17;;;;;;;;;;4935488;29;20091;-91
2022/01/10 22:33:21;;;;;;;32.85;16.52;;;;;;;;;;4962005;29;20038;-94
2022/01/10 22:35:47;;;;;;;28.98;16.40;;;;;;;;;;4962035;29;20062;-92
2022/01/10 22:38:13;;;;;;;29.17;16.08;;;;;;;;;;4962015;29;20019;-93
2022/01/10 22:40:39;;;;;;;29.92;17.10;;;;;;;;;;4947253;29;20020;-91
2022/01/10 22:43:06;;;;;;;30.60;16.50;;;;;;;;;;4942440;29;20031;-91
2022/01/10 22:45:32;;;;;;;29.88;16.05;;;;;;;;;;4942484;29;20122;-91
2022/01/10 22:47:58;;;;;;;32.85;16.67;;;;;;;;;;4942262;29;20052;-91
2022/01/10 22:50:24;;;;;;;32.72;16.92;;;;;;;;;;4941476;29;20028;-90
2022/01/10 22:52:50;;;;;;;31.48;16.73;;;;;;;;;;4941549;29;20034;-89
2022/01/10 22:55:16;;;;;;;30.45;16.27;;;;;;;;;;4925294;29;20330;-90
2022/01/10 22:57:43;;;;;;;29.92;16.05;;;;;;;;;;4942466;29;20343;-91
2022/01/10 23:00:15;;;;;;;30.65;15.73;;;;;;;;;;4940847;29;20039;-89
2022/01/10 23:02:41;;;;;;;30.23;15.88;;;;;;;;;;4941915;29;20024;-89
2022/01/10 23:05:10;;;;;;;28.13;14.82;;;;;;;;;;4941969;29;20031;-90
2022/01/10 23:07:37;;;;;;;31.10;16.23;;;;;;;;;;4940874;29;20028;-92
2022/01/10 23:10:03;;;;;;;29.70;15.40;;;;;;;;;;4941204;29;20055;-90
2022/01/10 23:12:29;;;;;;;28.90;15.20;;;;;;;;;;4941882;29;20019;-90
2022/01/10 23:14:55;;;;;;;29.70;15.75;;;;;;;;;;4941637;29;20427;-89
2022/01/10 23:17:22;;;;;;;28.75;16.10;;;;;;;;;;4941864;29;20031;-89
2022/01/10 23:19:48;;;;;;;25.55;14.50;;;;;;;;;;4942031;29;20032;-89
2022/01/10 23:22:14;;;;;;;26.20;14.57;;;;;;;;;;4940842;29;20032;-92
2022/01/10 23:30:47;;;;;;;27.58;13.95;;;;;;;;;;4941543;29;20027;-91
2022/01/10 23:33:14;;;;;;;24.02;14.02;;;;;;;;;;4941695;29;20019;-91
2022/01/10 23:35:40;;;;;;;28.83;14.48;;;;;;;;;;4940564;29;20028;-90
2022/01/10 23:38:06;;;;;;;26.02;14.65;;;;;;;;;;4940688;29;20039;-91
2022/01/10 23:40:32;;;;;;;25.55;14.63;;;;;;;;;;4941637;29;20347;-91
2022/01/10 23:42:59;;;;;;;23.92;14.57;;;;;;;;;;4941596;29;20036;-91
2022/01/10 23:45:25;;;;;;;22.85;13.40;;;;;;;;;;4940206;29;20419;-91
2022/01/10 23:47:51;;;;;;;25.20;14.27;;;;;;;;;;4924503;29;20047;-92
2022/01/10 23:50:18;;;;;;;24.60;14.48;;;;;;;;;;4924288;29;20118;-91
2022/01/10 23:53:17;;;;;;;25.83;13.73;;;;;;;;;;4940362;29;20074;-91
2022/01/10 23:55:36;;;;;;;24.17;14.40;;;;;;;;;;4938201;29;20119;-92
2022/01/10 23:58:03;;;;;;;24.88;12.85;;;;;;;;;;4941101;29;20301;-92
